createdAt,value
2017-01-11T00:00:35.665Z,99.99
2017-01-11T00:01:35.620Z,99.99
2017-01-11T00:02:35.586Z,99.99
2017-01-11T00:03:35.535Z,99.99
2017-01-11T00:04:35.495Z,99.99
2017-01-11T00:05:35.449Z,99.99
2017-01-11T00:06:35.406Z,99.99
2017-01-11T00:07:35.365Z,99.99
2017-01-11T00:08:35.321Z,99.99
2017-01-11T00:09:35.282Z,99.99
2017-01-11T00:10:35.235Z,99.99
2017-01-11T00:11:35.197Z,99.99
2017-01-11T00:12:35.156Z,99.99
2017-01-11T00:13:35.111Z,99.99
2017-01-11T00:14:35.067Z,99.99
2017-01-11T00:15:35.027Z,99.99
2017-01-11T00:16:34.984Z,99.99
2017-01-11T00:17:34.940Z,99.99
2017-01-11T00:18:34.514Z,99.99
2017-01-11T00:19:34.857Z,99.99
2017-01-11T00:20:34.809Z,99.99
2017-01-11T00:21:34.769Z,99.99
2017-01-11T00:22:34.738Z,99.99
2017-01-11T00:23:34.688Z,99.99
2017-01-11T00:24:34.257Z,99.99
2017-01-11T00:25:34.601Z,99.99
2017-01-11T00:26:34.559Z,99.99
2017-01-11T00:27:34.517Z,99.99
2017-01-11T00:28:34.473Z,99.99
2017-01-11T00:29:34.431Z,99.99
2017-01-11T00:30:34.002Z,99.99
2017-01-11T00:31:34.348Z,99.99
2017-01-11T00:32:34.305Z,99.99
2017-01-11T00:33:33.907Z,99.99
2017-01-11T00:34:34.219Z,99.99
2017-01-11T00:35:34.177Z,99.99
2017-01-11T00:36:34.136Z,99.99
2017-01-11T00:37:34.089Z,99.99
2017-01-11T00:38:34.047Z,99.99
2017-01-11T00:39:34.005Z,99.99
2017-01-11T00:40:33.962Z,99.99
2017-01-11T00:41:33.535Z,99.99
2017-01-11T00:42:33.492Z,99.99
2017-01-11T00:43:33.841Z,99.99
2017-01-11T00:44:33.793Z,99.99
2017-01-11T00:45:33.365Z,99.99
2017-01-11T00:46:33.709Z,99.99
2017-01-11T00:47:33.280Z,99.99
2017-01-11T00:48:33.621Z,99.99
2017-01-11T00:49:33.583Z,99.99
2017-01-11T00:50:33.546Z,99.99
2017-01-11T00:51:33.494Z,99.99
2017-01-11T00:52:33.459Z,99.99
2017-01-11T00:53:33.411Z,99.99
2017-01-11T00:54:33.367Z,99.99
2017-01-11T00:55:32.946Z,99.99
2017-01-11T00:56:33.283Z,99.99
2017-01-11T00:57:33.241Z,99.99
2017-01-11T00:58:33.198Z,99.99
2017-01-11T00:59:33.155Z,99.99
2017-01-11T01:00:33.119Z,99.99
2017-01-11T01:01:33.074Z,99.99
2017-01-11T01:02:33.032Z,99.99
2017-01-11T01:03:32.600Z,99.99
2017-01-11T01:04:32.946Z,99.99
2017-01-11T01:05:32.902Z,99.99
2017-01-11T01:06:32.861Z,99.99
2017-01-11T01:07:32.817Z,99.99
2017-01-11T01:08:32.777Z,99.99
2017-01-11T01:09:32.735Z,99.99
2017-01-11T01:10:32.687Z,99.99
2017-01-11T01:11:32.661Z,99.99
2017-01-11T01:12:32.611Z,99.99
2017-01-11T01:13:32.568Z,99.99
2017-01-11T01:14:32.135Z,99.99
2017-01-11T01:15:32.481Z,99.99
2017-01-11T01:16:32.439Z,99.99
2017-01-11T01:17:32.394Z,99.99
2017-01-11T01:18:32.351Z,99.99
2017-01-11T01:19:32.313Z,99.99
2017-01-11T01:20:32.266Z,99.99
2017-01-11T01:21:31.849Z,99.99
2017-01-11T01:22:32.183Z,99.99
2017-01-11T01:23:32.141Z,99.99
2017-01-11T01:24:32.098Z,99.99
2017-01-11T01:25:32.052Z,99.99
2017-01-11T01:26:32.013Z,99.99
2017-01-11T01:27:31.971Z,99.99
2017-01-11T01:28:31.929Z,99.99
2017-01-11T01:29:31.886Z,99.99
2017-01-11T01:30:31.844Z,99.99
2017-01-11T01:31:31.823Z,99.99
2017-01-11T01:32:31.761Z,99.99
2017-01-11T01:33:31.715Z,99.99
2017-01-11T01:34:31.288Z,99.99
2017-01-11T01:35:31.632Z,99.99
2017-01-11T01:36:31.589Z,99.99
2017-01-11T01:37:31.545Z,99.99
2017-01-11T01:38:31.119Z,99.99
2017-01-11T01:39:31.459Z,99.99
2017-01-11T01:40:31.418Z,99.99
2017-01-11T01:41:31.380Z,99.99
2017-01-11T01:42:30.949Z,99.99
2017-01-11T01:43:31.294Z,99.99
2017-01-11T01:44:31.253Z,99.99
2017-01-11T01:45:31.208Z,99.99
2017-01-11T01:46:31.164Z,99.99
2017-01-11T01:47:30.738Z,99.99
2017-01-11T01:48:31.081Z,99.99
2017-01-11T01:49:31.036Z,99.99
2017-01-11T01:50:30.994Z,99.99
2017-01-11T01:51:30.956Z,99.99
2017-01-11T01:52:30.524Z,99.99
2017-01-11T01:53:30.869Z,99.99
2017-01-11T01:54:30.823Z,99.99
2017-01-11T01:55:30.784Z,99.99
2017-01-11T01:56:30.742Z,99.99
2017-01-11T01:57:30.700Z,99.99
2017-01-11T01:58:30.653Z,99.99
2017-01-11T01:59:30.608Z,99.99
2017-01-11T02:00:30.568Z,99.99
2017-01-11T02:01:30.530Z,99.99
2017-01-11T02:02:30.483Z,99.99
2017-01-11T02:03:30.441Z,99.99
2017-01-11T02:04:30.401Z,99.99
2017-01-11T02:05:30.367Z,99.99
2017-01-11T02:06:30.315Z,99.99
2017-01-11T02:07:30.272Z,99.99
2017-01-11T02:08:30.229Z,99.99
2017-01-11T02:09:29.802Z,99.99
2017-01-11T02:10:29.759Z,99.99
2017-01-11T02:11:30.103Z,99.99
2017-01-11T02:12:30.060Z,99.99
2017-01-11T02:13:29.632Z,99.99
2017-01-11T02:14:29.975Z,99.99
2017-01-11T02:15:29.937Z,99.99
2017-01-11T02:16:29.887Z,99.99
2017-01-11T02:17:29.847Z,99.99
2017-01-11T02:18:29.803Z,99.99
2017-01-11T02:19:29.762Z,99.99
2017-01-11T02:20:29.718Z,99.99
2017-01-11T02:21:29.674Z,99.99
2017-01-11T02:22:29.632Z,99.99
2017-01-11T02:23:29.593Z,99.99
2017-01-11T02:24:29.163Z,99.99
2017-01-11T02:25:29.509Z,99.99
2017-01-11T02:26:29.466Z,99.99
2017-01-11T02:27:29.423Z,99.99
2017-01-11T02:28:29.381Z,99.99
2017-01-11T02:29:29.334Z,99.99
2017-01-11T02:30:28.911Z,99.99
2017-01-11T02:31:29.248Z,99.99
2017-01-11T02:32:29.210Z,99.99
2017-01-11T02:33:29.163Z,99.99
2017-01-11T02:34:29.132Z,99.99
2017-01-11T02:35:29.080Z,99.99
2017-01-11T02:36:28.654Z,99.99
2017-01-11T02:37:28.997Z,99.99
2017-01-11T02:38:28.950Z,99.99
2017-01-11T02:39:28.913Z,99.99
2017-01-11T02:40:28.866Z,99.99
2017-01-11T02:41:28.830Z,99.99
2017-01-11T02:42:28.783Z,99.99
2017-01-11T02:43:28.741Z,99.99
2017-01-11T02:44:28.699Z,99.99
2017-01-11T02:45:28.656Z,99.99
2017-01-11T02:46:28.615Z,99.99
2017-01-11T02:47:28.571Z,99.99
2017-01-11T02:48:28.527Z,99.99
2017-01-11T02:49:28.486Z,99.99
2017-01-11T02:50:28.445Z,99.99
2017-01-11T02:51:28.404Z,99.99
2017-01-11T02:52:28.360Z,99.99
2017-01-11T02:53:27.957Z,99.99
2017-01-11T02:54:28.274Z,99.99
2017-01-11T02:55:28.233Z,99.99
2017-01-11T02:56:28.189Z,99.99
2017-01-11T02:57:28.149Z,99.99
2017-01-11T02:58:28.111Z,99.99
2017-01-11T02:59:27.677Z,99.99
2017-01-11T03:00:28.022Z,99.99
2017-01-11T03:01:27.593Z,99.99
2017-01-11T03:02:27.945Z,99.99
2017-01-11T03:03:27.898Z,99.99
2017-01-11T03:04:27.467Z,99.99
2017-01-11T03:05:27.810Z,99.99
2017-01-11T03:06:27.769Z,99.99
2017-01-11T03:07:27.725Z,99.99
2017-01-11T03:08:27.681Z,99.99
2017-01-11T03:09:27.645Z,99.99
2017-01-11T03:10:27.603Z,99.99
2017-01-11T03:11:27.560Z,99.99
2017-01-11T03:12:27.513Z,99.99
2017-01-11T03:13:27.085Z,99.99
2017-01-11T03:14:27.430Z,99.99
2017-01-11T03:15:27.387Z,99.99
2017-01-11T03:16:27.343Z,99.99
2017-01-11T03:17:27.303Z,99.99
2017-01-11T03:18:27.263Z,99.99
2017-01-11T03:19:27.219Z,99.99
2017-01-11T03:20:27.179Z,99.99
2017-01-11T03:21:27.137Z,99.99
2017-01-11T03:22:26.704Z,99.99
2017-01-11T03:23:27.050Z,99.99
2017-01-11T03:24:27.010Z,99.99
2017-01-11T03:25:26.967Z,99.99
2017-01-11T03:26:26.543Z,99.99
2017-01-11T03:27:26.880Z,99.99
2017-01-11T03:28:26.841Z,99.99
2017-01-11T03:29:26.797Z,99.99
2017-01-11T03:30:26.806Z,99.99
2017-01-11T03:31:26.713Z,99.99
2017-01-11T03:32:26.672Z,99.99
2017-01-11T03:33:26.631Z,99.99
2017-01-11T03:34:26.588Z,99.99
2017-01-11T03:35:26.545Z,99.99
2017-01-11T03:36:26.503Z,99.99
2017-01-11T03:37:26.460Z,99.99
2017-01-11T03:38:26.422Z,99.99
2017-01-11T03:39:26.380Z,99.99
2017-01-11T03:40:26.334Z,99.99
2017-01-11T03:41:26.304Z,99.99
2017-01-11T03:42:26.255Z,99.99
2017-01-11T03:43:25.821Z,99.99
2017-01-11T03:44:25.781Z,99.99
2017-01-11T03:45:26.126Z,99.99
2017-01-11T03:46:26.081Z,99.99
2017-01-11T03:47:26.037Z,99.99
2017-01-11T03:48:26.007Z,99.99
2017-01-11T03:49:25.956Z,99.99
2017-01-11T03:50:25.914Z,99.99
2017-01-11T03:51:25.485Z,99.99
2017-01-11T03:52:25.828Z,99.99
2017-01-11T03:53:25.789Z,99.99
2017-01-11T03:54:25.745Z,99.99
2017-01-11T03:55:25.704Z,99.99
2017-01-11T03:56:25.664Z,99.99
2017-01-11T03:57:25.237Z,99.99
2017-01-11T03:58:25.578Z,99.99
2017-01-11T03:59:25.541Z,99.99
2017-01-11T04:00:25.496Z,99.99
2017-01-11T04:01:25.457Z,99.99
2017-01-11T04:02:25.407Z,99.99
2017-01-11T04:03:24.985Z,99.99
2017-01-11T04:04:25.324Z,99.99
2017-01-11T04:05:25.282Z,99.99
2017-01-11T04:06:25.245Z,99.99
2017-01-11T04:07:25.199Z,99.99
2017-01-11T04:08:25.157Z,99.99
2017-01-11T04:09:25.112Z,99.99
2017-01-11T04:10:25.072Z,99.99
2017-01-11T04:11:24.648Z,99.99
2017-01-11T04:12:24.988Z,99.99
2017-01-11T04:13:24.568Z,99.99
2017-01-11T04:14:24.903Z,99.99
2017-01-11T04:15:24.862Z,99.99
2017-01-11T04:16:24.820Z,99.99
2017-01-11T04:17:24.776Z,99.99
2017-01-11T04:18:24.735Z,99.99
2017-01-11T04:19:24.695Z,99.99
2017-01-11T04:20:24.653Z,99.99
2017-01-11T04:21:24.609Z,99.99
2017-01-11T04:22:24.568Z,99.99
2017-01-11T04:23:24.527Z,99.99
2017-01-11T04:24:24.484Z,99.99
2017-01-11T04:25:24.055Z,99.99
2017-01-11T04:26:24.399Z,99.99
2017-01-11T04:27:24.358Z,99.99
2017-01-11T04:28:24.316Z,99.99
2017-01-11T04:29:24.272Z,99.99
2017-01-11T04:30:24.234Z,99.99
2017-01-11T04:31:23.811Z,99.99
2017-01-11T04:32:24.147Z,99.99
2017-01-11T04:33:23.720Z,99.99
2017-01-11T04:34:24.063Z,99.99
2017-01-11T04:35:24.028Z,99.99
2017-01-11T04:36:23.979Z,99.99
2017-01-11T04:37:23.554Z,99.99
2017-01-11T04:38:23.895Z,99.99
2017-01-11T04:39:23.868Z,99.99
2017-01-11T04:40:23.819Z,99.99
2017-01-11T04:41:23.771Z,99.99
2017-01-11T04:42:23.724Z,99.99
2017-01-11T04:43:23.685Z,99.99
2017-01-11T04:44:23.640Z,99.99
2017-01-11T04:45:23.600Z,99.99
2017-01-11T04:46:23.559Z,99.99
2017-01-11T04:47:23.530Z,99.99
2017-01-11T04:48:23.478Z,99.99
2017-01-11T04:49:23.435Z,99.99
2017-01-11T04:50:23.392Z,99.99
2017-01-11T04:51:23.346Z,99.99
2017-01-11T04:52:23.309Z,99.99
2017-01-11T04:53:22.893Z,99.99
2017-01-11T04:54:23.220Z,99.99
2017-01-11T04:55:23.177Z,99.99
2017-01-11T04:56:23.140Z,99.99
2017-01-11T04:57:23.092Z,99.99
2017-01-11T04:58:23.053Z,99.99
2017-01-11T04:59:23.010Z,99.99
2017-01-11T05:00:22.584Z,99.99
2017-01-11T05:01:22.927Z,99.99
2017-01-11T05:02:22.498Z,99.99
2017-01-11T05:03:22.458Z,99.99
2017-01-11T05:04:22.799Z,99.99
2017-01-11T05:05:22.370Z,99.99
2017-01-11T05:06:22.329Z,99.99
2017-01-11T05:07:22.675Z,99.99
2017-01-11T05:08:22.247Z,99.99
2017-01-11T05:09:22.207Z,99.99
2017-01-11T05:10:22.547Z,99.99
2017-01-11T05:11:22.507Z,99.99
2017-01-11T05:12:22.463Z,99.99
2017-01-11T05:13:22.422Z,99.99
2017-01-11T05:14:22.381Z,99.99
2017-01-11T05:15:22.337Z,99.99
2017-01-11T05:16:22.296Z,99.99
2017-01-11T05:17:22.255Z,99.99
2017-01-11T05:18:22.210Z,99.99
2017-01-11T05:19:22.166Z,99.99
2017-01-11T05:20:22.127Z,99.99
2017-01-11T05:21:22.082Z,99.99
2017-01-11T05:22:22.041Z,99.99
2017-01-11T05:23:21.999Z,99.99
2017-01-11T05:24:21.960Z,99.99
2017-01-11T05:25:21.915Z,99.99
2017-01-11T05:26:21.873Z,99.99
2017-01-11T05:27:21.830Z,99.99
2017-01-11T05:28:21.789Z,99.99
2017-01-11T05:29:21.748Z,99.99
2017-01-11T05:30:21.324Z,99.99
2017-01-11T05:31:21.668Z,99.99
2017-01-11T05:32:21.237Z,99.99
2017-01-11T05:33:21.579Z,99.99
2017-01-11T05:34:21.537Z,99.99
2017-01-11T05:35:21.109Z,99.99
2017-01-11T05:36:21.451Z,99.99
2017-01-11T05:37:21.411Z,99.99
2017-01-11T05:38:21.367Z,99.99
2017-01-11T05:39:21.329Z,99.99
2017-01-11T05:40:21.284Z,99.99
2017-01-11T05:41:21.240Z,99.99
2017-01-11T05:42:21.198Z,99.99
2017-01-11T05:43:21.157Z,99.99
2017-01-11T05:44:21.114Z,99.99
2017-01-11T05:45:21.073Z,99.99
2017-01-11T05:46:21.029Z,99.99
2017-01-11T05:47:20.989Z,99.99
2017-01-11T05:48:20.945Z,99.99
2017-01-11T05:49:20.903Z,99.99
2017-01-11T05:50:20.865Z,99.99
2017-01-11T05:51:20.821Z,99.99
2017-01-11T05:52:20.777Z,99.99
2017-01-11T05:53:20.737Z,99.99
2017-01-11T05:54:20.696Z,99.99
2017-01-11T05:55:20.651Z,99.99
2017-01-11T05:56:20.614Z,99.99
2017-01-11T05:57:20.572Z,99.99
2017-01-11T05:58:20.528Z,99.99
2017-01-11T05:59:20.484Z,99.99
2017-01-11T06:00:20.440Z,99.99
2017-01-11T06:01:20.400Z,99.99
2017-01-11T06:02:20.359Z,99.99
2017-01-11T06:03:20.316Z,99.99
2017-01-11T06:04:19.888Z,99.99
2017-01-11T06:05:20.232Z,99.99
2017-01-11T06:06:20.190Z,99.99
2017-01-11T06:07:20.147Z,99.99
2017-01-11T06:08:20.107Z,99.99
2017-01-11T06:09:20.065Z,99.99
2017-01-11T06:10:20.020Z,99.99
2017-01-11T06:11:19.985Z,99.99
2017-01-11T06:12:19.936Z,99.99
2017-01-11T06:13:19.894Z,99.99
2017-01-11T06:14:19.856Z,99.99
2017-01-11T06:15:19.810Z,99.99
2017-01-11T06:16:19.771Z,99.99
2017-01-11T06:17:19.725Z,99.99
2017-01-11T06:18:19.683Z,99.99
2017-01-11T06:19:19.644Z,99.99
2017-01-11T06:20:19.601Z,99.99
2017-01-11T06:21:19.559Z,99.99
2017-01-11T06:22:19.514Z,99.99
2017-01-11T06:23:19.473Z,99.99
2017-01-11T06:24:19.058Z,99.99
2017-01-11T06:25:19.710Z,99.99
2017-01-11T06:26:19.347Z,99.99
2017-01-11T06:27:19.303Z,99.99
2017-01-11T06:28:19.261Z,99.99
2017-01-11T06:29:19.220Z,99.99
2017-01-11T06:30:18.793Z,99.99
2017-01-11T06:31:18.752Z,99.99
2017-01-11T06:32:19.094Z,99.99
2017-01-11T06:33:19.053Z,99.99
2017-01-11T06:34:19.010Z,99.99
2017-01-11T06:35:18.970Z,99.99
2017-01-11T06:36:18.925Z,99.99
2017-01-11T06:37:18.886Z,99.99
2017-01-11T06:38:18.840Z,99.99
2017-01-11T06:39:18.803Z,99.99
2017-01-11T06:40:18.375Z,99.99
2017-01-11T06:41:18.716Z,99.99
2017-01-11T06:42:18.675Z,99.99
2017-01-11T06:43:18.245Z,99.99
2017-01-11T06:44:18.589Z,99.99
2017-01-11T06:45:18.161Z,99.99
2017-01-11T06:46:18.125Z,99.99
2017-01-11T06:47:18.465Z,99.99
2017-01-11T06:48:18.424Z,99.99
2017-01-11T06:49:17.996Z,99.99
2017-01-11T06:50:18.339Z,99.99
2017-01-11T06:51:18.299Z,99.99
2017-01-11T06:52:18.253Z,99.99
2017-01-11T06:53:18.212Z,99.99
2017-01-11T06:54:18.170Z,99.99
2017-01-11T06:55:18.129Z,99.99
2017-01-11T06:56:18.085Z,99.99
2017-01-11T06:57:18.040Z,99.99
2017-01-11T06:58:18.000Z,99.99
2017-01-11T06:59:17.959Z,99.99
2017-01-11T07:00:17.926Z,99.99
2017-01-11T07:01:17.881Z,99.99
2017-01-11T07:02:17.447Z,99.99
2017-01-11T07:03:17.792Z,99.99
2017-01-11T07:04:17.770Z,99.99
2017-01-11T07:05:17.703Z,99.99
2017-01-11T07:06:17.664Z,99.99
2017-01-11T07:07:17.625Z,99.99
2017-01-11T07:08:17.194Z,99.99
2017-01-11T07:09:17.537Z,99.99
2017-01-11T07:10:17.498Z,99.99
2017-01-11T07:11:17.456Z,99.99
2017-01-11T07:12:17.414Z,99.99
2017-01-11T07:13:16.986Z,99.99
2017-01-11T07:14:16.940Z,99.99
2017-01-11T07:15:17.285Z,99.99
2017-01-11T07:16:17.247Z,99.99
2017-01-11T07:17:17.201Z,99.99
2017-01-11T07:18:16.777Z,99.99
2017-01-11T07:19:17.126Z,99.99
2017-01-11T07:20:17.076Z,99.99
2017-01-11T07:21:17.033Z,99.99
2017-01-11T07:22:17.004Z,99.99
2017-01-11T07:23:16.951Z,99.99
2017-01-11T07:24:16.908Z,99.99
2017-01-11T07:25:16.864Z,99.99
2017-01-11T07:26:16.828Z,99.99
2017-01-11T07:27:16.780Z,99.99
2017-01-11T07:28:17.172Z,99.99
2017-01-11T07:29:16.699Z,99.99
2017-01-11T07:30:16.269Z,99.99
2017-01-11T07:31:16.616Z,99.99
2017-01-11T07:32:16.570Z,99.99
2017-01-11T07:33:16.529Z,99.99
2017-01-11T07:34:16.483Z,99.99
2017-01-11T07:35:16.058Z,99.99
2017-01-11T07:36:16.404Z,99.99
2017-01-11T07:37:16.360Z,99.99
2017-01-11T07:38:15.933Z,99.99
2017-01-11T07:39:16.279Z,99.99
2017-01-11T07:40:16.237Z,99.99
2017-01-11T07:41:16.191Z,99.99
2017-01-11T07:42:16.149Z,99.99
2017-01-11T07:43:16.111Z,99.99
2017-01-11T07:44:15.693Z,99.99
2017-01-11T07:45:16.024Z,99.99
2017-01-11T07:46:15.983Z,99.99
2017-01-11T07:47:15.959Z,99.99
2017-01-11T07:48:15.900Z,99.99
2017-01-11T07:49:15.470Z,99.99
2017-01-11T07:50:15.430Z,99.99
2017-01-11T07:51:15.772Z,99.99
2017-01-11T07:52:15.732Z,99.99
2017-01-11T07:53:15.688Z,99.99
2017-01-11T07:54:15.261Z,99.99
2017-01-11T07:55:15.220Z,99.99
2017-01-11T07:56:15.565Z,99.99
2017-01-11T07:57:15.530Z,99.99
2017-01-11T07:58:15.479Z,99.99
2017-01-11T07:59:15.438Z,99.99
2017-01-11T08:00:15.395Z,99.99
2017-01-11T08:01:15.358Z,99.99
2017-01-11T08:02:15.318Z,99.99
2017-01-11T08:03:15.268Z,99.99
2017-01-11T08:04:15.228Z,99.99
2017-01-11T08:05:15.186Z,99.99
2017-01-11T08:06:15.146Z,99.99
2017-01-11T08:07:14.743Z,99.99
2017-01-11T08:08:15.059Z,99.99
2017-01-11T08:09:15.018Z,99.99
2017-01-11T08:10:14.981Z,99.99
2017-01-11T08:11:14.939Z,99.99
2017-01-11T08:12:14.509Z,99.99
2017-01-11T08:13:14.851Z,99.99
2017-01-11T08:14:14.810Z,99.99
2017-01-11T08:15:14.768Z,99.99
2017-01-11T08:16:14.346Z,99.99
2017-01-11T08:17:14.683Z,99.99
2017-01-11T08:18:14.645Z,99.99
2017-01-11T08:19:14.602Z,99.99
2017-01-11T08:20:14.175Z,99.99
2017-01-11T08:21:14.520Z,99.99
2017-01-11T08:22:14.094Z,99.99
2017-01-11T08:23:14.052Z,99.99
2017-01-11T08:24:14.394Z,99.99
2017-01-11T08:25:14.349Z,99.99
2017-01-11T08:26:14.309Z,99.99
2017-01-11T08:27:14.267Z,99.99
2017-01-11T08:28:14.224Z,99.99
2017-01-11T08:29:14.183Z,99.99
2017-01-11T08:30:14.144Z,99.99
2017-01-11T08:31:13.716Z,99.99
2017-01-11T08:32:14.056Z,99.99
2017-01-11T08:33:13.632Z,99.99
2017-01-11T08:34:13.979Z,99.99
2017-01-11T08:35:13.551Z,99.99
2017-01-11T08:36:13.893Z,99.99
2017-01-11T08:37:13.466Z,99.99
2017-01-11T08:38:13.812Z,99.99
2017-01-11T08:39:13.770Z,99.99
2017-01-11T08:40:13.732Z,99.99
2017-01-11T08:41:13.300Z,99.99
2017-01-11T08:42:13.644Z,99.99
2017-01-11T08:43:13.602Z,99.99
2017-01-11T08:44:13.560Z,99.99
2017-01-11T08:45:13.520Z,99.99
2017-01-11T08:46:13.476Z,99.99
2017-01-11T08:47:13.434Z,99.99
2017-01-11T08:48:13.036Z,99.99
2017-01-11T08:49:13.351Z,99.99
2017-01-11T08:50:13.308Z,99.99
2017-01-11T08:51:13.271Z,99.99
2017-01-11T08:52:13.231Z,99.99
2017-01-11T08:53:13.189Z,99.99
2017-01-11T08:54:13.146Z,99.99
2017-01-11T08:55:12.719Z,99.99
2017-01-11T08:56:13.060Z,99.99
2017-01-11T08:57:13.022Z,99.99
2017-01-11T08:58:12.984Z,99.99
2017-01-11T08:59:12.936Z,99.99
2017-01-11T09:00:12.900Z,99.99
2017-01-11T09:01:12.856Z,99.99
2017-01-11T09:02:12.812Z,99.99
2017-01-11T09:03:12.773Z,99.99
2017-01-11T09:04:12.733Z,99.99
2017-01-11T09:05:12.705Z,99.99
2017-01-11T09:06:12.649Z,99.99
2017-01-11T09:07:12.607Z,99.99
2017-01-11T09:08:12.572Z,99.99
2017-01-11T09:09:12.524Z,99.99
2017-01-11T09:10:12.486Z,99.99
2017-01-11T09:11:12.446Z,99.99
2017-01-11T09:12:12.402Z,99.99
2017-01-11T09:13:11.972Z,99.9
2017-01-11T09:14:12.319Z,99.99
2017-01-11T09:15:12.278Z,99.33
2017-01-11T09:16:12.238Z,99.15
2017-01-11T09:17:12.196Z,98.77
2017-01-11T09:18:12.154Z,97.92
2017-01-11T09:19:12.115Z,97.82
2017-01-11T09:20:12.071Z,98.49
2017-01-11T09:21:12.034Z,98.39
2017-01-11T09:22:11.606Z,97.49
2017-01-11T09:23:11.951Z,97.3
2017-01-11T09:24:11.908Z,97.11
2017-01-11T09:25:11.872Z,97.21
2017-01-11T09:26:11.828Z,97.02
2017-01-11T09:27:11.428Z,96.45
2017-01-11T09:28:11.748Z,95.98
2017-01-11T09:29:11.710Z,95.69
2017-01-11T09:30:11.668Z,95.98
2017-01-11T09:31:11.635Z,95.41
2017-01-11T09:32:11.590Z,94.74
2017-01-11T09:33:11.546Z,94.37
2017-01-11T09:34:11.507Z,93.84
2017-01-11T09:35:11.465Z,93.56
2017-01-11T09:36:11.424Z,92.99
2017-01-11T09:37:11.384Z,92.52
2017-01-11T09:38:11.343Z,91.33
2017-01-11T09:39:10.920Z,89.62
2017-01-11T09:40:11.267Z,89.1
2017-01-11T09:41:11.225Z,87.68
2017-01-11T09:42:11.187Z,86.25
2017-01-11T09:43:11.154Z,85.11
2017-01-11T09:44:11.109Z,85.59
2017-01-11T09:45:10.684Z,85.68
2017-01-11T09:46:10.645Z,85.11
2017-01-11T09:47:10.989Z,85.21
2017-01-11T09:48:10.566Z,85.59
2017-01-11T09:49:10.911Z,85.68
2017-01-11T09:50:10.873Z,85.4
2017-01-11T09:51:10.450Z,86.25
2017-01-11T09:52:10.414Z,86.16
2017-01-11T09:53:10.784Z,86.07
2017-01-11T09:54:10.333Z,86.25
2017-01-11T09:55:10.680Z,86.07
2017-01-11T09:56:10.643Z,86.07
2017-01-11T09:57:10.605Z,85.87
2017-01-11T09:58:10.566Z,86.25
2017-01-11T09:59:10.142Z,86.16
2017-01-11T10:00:10.487Z,86.35
2017-01-11T10:01:10.452Z,86.59
2017-01-11T10:02:10.413Z,86.3
2017-01-11T10:03:10.374Z,85.74
2017-01-11T10:04:10.336Z,85.83
2017-01-11T10:05:10.299Z,85.83
2017-01-11T10:06:10.257Z,86.02
2017-01-11T10:07:09.833Z,86.02
2017-01-11T10:08:10.203Z,85.26
2017-01-11T10:09:10.141Z,84.5
2017-01-11T10:10:10.100Z,84.22
2017-01-11T10:11:10.067Z,84.78
2017-01-11T10:12:10.027Z,84.41
2017-01-11T10:13:09.988Z,84.36
2017-01-11T10:14:09.960Z,83.88
2017-01-11T10:15:09.910Z,83.78
2017-01-11T10:16:09.873Z,83.22
2017-01-11T10:17:09.842Z,83.12
2017-01-11T10:18:09.799Z,82.36
2017-01-11T10:19:09.758Z,81.79
2017-01-11T10:20:09.720Z,81.65
2017-01-11T10:21:09.681Z,81.55
2017-01-11T10:22:09.258Z,81.26
2017-01-11T10:23:09.604Z,80.13
2017-01-11T10:24:09.563Z,79.65
2017-01-11T10:25:09.528Z,80.03
2017-01-11T10:26:09.104Z,80.08
2017-01-11T10:27:09.454Z,79.71
2017-01-11T10:28:09.411Z,79.9
2017-01-11T10:29:09.374Z,79.8
2017-01-11T10:30:09.337Z,79.71
2017-01-11T10:31:09.299Z,79.42
2017-01-11T10:32:08.875Z,79.23
2017-01-11T10:33:09.220Z,79.55
2017-01-11T10:34:08.799Z,79.55
2017-01-11T10:35:09.145Z,78.99
2017-01-11T10:36:08.726Z,78.38
2017-01-11T10:37:09.069Z,78.7
2017-01-11T10:38:09.034Z,78.66
2017-01-11T10:39:08.614Z,78.75
2017-01-11T10:40:08.960Z,78.56
2017-01-11T10:41:08.918Z,79.23
2017-01-11T10:42:08.880Z,78.56
2017-01-11T10:43:08.843Z,79.23
2017-01-11T10:44:08.808Z,78.95
2017-01-11T10:45:08.766Z,79.14
2017-01-11T10:46:08.351Z,79.23
2017-01-11T10:47:08.690Z,78.19
2017-01-11T10:48:08.655Z,78.19
2017-01-11T10:49:08.613Z,77.71
2017-01-11T10:50:08.576Z,77.52
2017-01-11T10:51:08.537Z,76.67
2017-01-11T10:52:08.504Z,75.59
2017-01-11T10:53:08.463Z,74.64
2017-01-11T10:54:08.423Z,75.21
2017-01-11T10:55:08.384Z,75.78
2017-01-11T10:56:08.352Z,76.06
2017-01-11T10:57:08.309Z,75.68
2017-01-11T10:58:08.270Z,75.11
2017-01-11T10:59:08.234Z,75.31
2017-01-11T11:00:08.196Z,75.4
2017-01-11T11:01:07.772Z,75.49
2017-01-11T11:02:08.117Z,74.35
2017-01-11T11:03:08.078Z,72.93
2017-01-11T11:04:08.043Z,72.93
2017-01-11T11:05:07.618Z,73.22
2017-01-11T11:06:07.965Z,72.93
2017-01-11T11:07:07.925Z,72.84
2017-01-11T11:08:07.887Z,72.74
2017-01-11T11:09:07.851Z,72.45
2017-01-11T11:10:07.810Z,71.89
2017-01-11T11:11:07.771Z,71.8
2017-01-11T11:12:07.736Z,71.51
2017-01-11T11:13:07.695Z,70.84
2017-01-11T11:14:07.657Z,71.6
2017-01-11T11:15:07.618Z,71.8
2017-01-11T11:16:07.583Z,71.6
2017-01-11T11:17:07.541Z,70.94
2017-01-11T11:18:07.502Z,70.75
2017-01-11T11:19:07.463Z,71.22
2017-01-11T11:20:07.428Z,71.51
2017-01-11T11:21:07.384Z,71.57
2017-01-11T11:22:07.348Z,71.85
2017-01-11T11:23:07.309Z,72.61
2017-01-11T11:24:07.268Z,71.13
2017-01-11T11:25:07.238Z,70.81
2017-01-11T11:26:06.809Z,70.72
2017-01-11T11:27:07.163Z,70.43
2017-01-11T11:28:07.115Z,70.18
2017-01-11T11:29:07.080Z,70.47
2017-01-11T11:30:07.041Z,70.47
2017-01-11T11:31:07.000Z,70.18
2017-01-11T11:32:06.961Z,69.99
2017-01-11T11:33:06.922Z,70.18
2017-01-11T11:34:06.497Z,68.95
2017-01-11T11:35:06.843Z,68.29
2017-01-11T11:36:06.806Z,68.19
2017-01-11T11:37:06.769Z,68.48
2017-01-11T11:38:06.730Z,68.1
2017-01-11T11:39:06.687Z,67.81
2017-01-11T11:40:06.657Z,67.05
2017-01-11T11:41:06.614Z,67.14
2017-01-11T11:42:06.185Z,67.71
2017-01-11T11:43:06.149Z,67.9
2017-01-11T11:44:06.493Z,68.19
2017-01-11T11:45:06.455Z,67.9
2017-01-11T11:46:06.033Z,67.62
2017-01-11T11:47:06.378Z,67.9
2017-01-11T11:48:06.344Z,68.19
2017-01-11T11:49:06.301Z,68.1
2017-01-11T11:50:05.874Z,68.63
2017-01-11T11:51:06.223Z,68.91
2017-01-11T11:52:06.190Z,68.73
2017-01-11T11:53:06.145Z,69.1
2017-01-11T11:54:06.104Z,68.91
2017-01-11T11:55:06.091Z,69.48
2017-01-11T11:56:06.027Z,70.05
2017-01-11T11:57:05.987Z,70.05
2017-01-11T11:58:05.952Z,70.15
2017-01-11T11:59:05.907Z,70.15
2017-01-11T12:00:05.874Z,70.53
2017-01-11T12:01:05.832Z,70.53
2017-01-11T12:02:05.792Z,70.34
2017-01-11T12:03:05.751Z,70.9
2017-01-11T12:04:05.714Z,71.19
2017-01-11T12:05:05.672Z,71.38
2017-01-11T12:06:05.633Z,71.15
2017-01-11T12:07:05.596Z,71.47
2017-01-11T12:08:05.553Z,70.53
2017-01-11T12:09:05.514Z,70.53
2017-01-11T12:10:05.091Z,70.49
2017-01-11T12:11:05.445Z,70.58
2017-01-11T12:12:05.392Z,70.3
2017-01-11T12:13:05.357Z,70.2
2017-01-11T12:14:05.318Z,70.87
2017-01-11T12:15:05.278Z,70.78
2017-01-11T12:16:04.852Z,70.97
2017-01-11T12:17:05.195Z,70.87
2017-01-11T12:18:04.803Z,70.68
2017-01-11T12:19:04.733Z,70.39
2017-01-11T12:20:05.077Z,70.39
2017-01-11T12:21:05.041Z,70.68
2017-01-11T12:22:04.995Z,70.49
2017-01-11T12:23:04.574Z,70.3
2017-01-11T12:24:04.927Z,70.49
2017-01-11T12:25:04.879Z,70.49
2017-01-11T12:26:04.836Z,70.49
2017-01-11T12:27:04.797Z,70.49
2017-01-11T12:28:04.758Z,70.49
2017-01-11T12:29:04.718Z,70.3
2017-01-11T12:30:04.677Z,70.58
2017-01-11T12:31:04.635Z,70.68
2017-01-11T12:32:04.602Z,70.11
2017-01-11T12:33:04.555Z,70.3
2017-01-11T12:34:04.518Z,70.58
2017-01-11T12:35:04.476Z,70.97
2017-01-11T12:36:04.436Z,70.39
2017-01-11T12:37:04.009Z,70.78
2017-01-11T12:38:03.972Z,70.39
2017-01-11T12:39:03.930Z,70.49
2017-01-11T12:40:03.894Z,70.01
2017-01-11T12:41:04.235Z,69.73
2017-01-11T12:42:04.195Z,69.64
2017-01-11T12:43:04.154Z,69.64
2017-01-11T12:44:04.114Z,69.64
2017-01-11T12:45:04.075Z,69.73
2017-01-11T12:46:04.036Z,69.64
2017-01-11T12:47:03.993Z,69.73
2017-01-11T12:48:03.567Z,68.98
2017-01-11T12:49:03.527Z,69.35
2017-01-11T12:50:03.495Z,69.26
2017-01-11T12:51:03.448Z,69.35
2017-01-11T12:52:03.795Z,69.26
2017-01-11T12:53:03.753Z,68.5